Time;durP1;ratioP1;P1;durP2;ratioP2;P2;SDS_P1;SDS_P2;PMS_P1;PMS_P2;Temp;Humidity;BMP_temperature;BMP_pressure;BME280_temperature;BME280_humidity;BME280_pressure;Samples;Min_cycle;Max_cycle;Signal;HPM_P1;HPM_P2
2024/03/08 00:00:12;;;;;;;28.00;17.90;;;;;;;3.53;47.39;100305.96;105051;1257;69031;-62
2024/03/08 00:06:24;;;;;;;27.80;18.90;;;;;;;3.13;48.98;100307.08;101346;1291;604994;-62
2024/03/08 00:09:36;;;;;;;26.90;17.50;;;;;;;4.02;46.64;100297.61;104142;1268;61475;-63
2024/03/08 00:12:48;;;;;;;24.70;18.30;;;;;;;3.97;46.46;100297.98;104234;1260;59687;-62
2024/03/08 00:16:00;;;;;;;27.80;17.80;;;;;;;3.99;46.54;100296.92;103861;1265;72909;-62
2024/03/08 00:18:33;;;;;;;26.70;17.90;;;;;;;4.06;46.08;100297.58;100366;1259;5484159;-61
2024/03/08 00:21:45;;;;;;;26.30;17.50;;;;;;;4.04;45.89;100296.20;104665;1258;61966;-62
2024/03/08 00:31:16;;;;;;;29.00;17.90;;;;;;;3.89;46.30;100290.56;104442;1259;69187;-63
2024/03/08 00:34:31;;;;;;;24.10;18.30;;;;;;;3.75;46.43;100295.66;104534;1259;72548;-63
2024/03/08 00:37:27;;;;;;;27.10;18.90;;;;;;;3.72;46.74;100292.73;104129;1263;60782;-64
2024/03/08 00:44:10;;;;;;;30.90;19.40;;;;;;;3.94;46.01;100283.06;105084;1257;72896;-62
2024/03/08 00:47:22;;;;;;;35.20;20.20;;;;;;;3.65;46.78;100285.46;104325;1258;70211;-62
2024/03/08 00:50:08;;;;;;;33.90;21.50;;;;;;;3.65;46.95;100279.58;104482;1264;70956;-63
2024/03/08 00:53:20;;;;;;;33.80;22.40;;;;;;;3.62;46.98;100282.19;104821;1253;61409;-63
2024/03/08 00:56:33;;;;;;;30.60;21.60;;;;;;;3.62;46.70;100281.84;105695;1254;60000;-63
2024/03/08 00:59:45;;;;;;;36.60;23.40;;;;;;;3.60;47.00;100280.81;105302;1253;72846;-63
2024/03/08 01:02:29;;;;;;;37.10;22.10;;;;;;;3.81;46.30;100272.39;104870;1253;70631;-62
2024/03/08 01:15:34;;;;;;;32.20;23.00;;;;;;;3.71;46.54;100265.50;105584;1255;72805;-61
2024/03/08 01:18:46;;;;;;;31.60;23.10;;;;;;;3.63;46.78;100258.95;105174;1254;69145;-61
2024/03/08 01:35:42;;;;;;;33.10;24.40;;;;;;;3.67;47.30;100249.58;105618;1253;69169;-63
2024/03/08 01:42:28;;;;;;;35.90;24.50;;;;;;;3.77;47.09;100242.77;104491;1256;61480;-62
2024/03/08 01:45:06;;;;;;;38.00;25.50;;;;;;;3.83;47.02;100242.38;104768;1258;59403;-61
2024/03/08 01:51:22;;;;;;;37.70;24.80;;;;;;;3.86;47.19;100231.26;105227;1253;69226;-61
2024/03/08 01:54:34;;;;;;;38.20;25.60;;;;;;;3.86;47.10;100227.44;104524;1259;72263;-62
2024/03/08 01:57:46;;;;;;;41.90;26.20;;;;;;;3.93;46.67;100223.06;105059;1255;61452;-61
2024/03/08 02:01:03;;;;;;;40.20;26.40;;;;;;;3.90;46.99;100219.79;105057;1257;61156;-60
2024/03/08 02:07:31;;;;;;;37.20;25.10;;;;;;;3.86;46.95;100219.29;104313;1261;69759;-61
2024/03/08 02:10:44;;;;;;;37.70;24.00;;;;;;;3.89;46.89;100220.48;104376;1259;72395;-61
2024/03/08 02:31:31;;;;;;;34.30;23.80;;;;;;;3.77;46.52;100216.92;105027;1255;61803;-60
2024/03/08 02:34:43;;;;;;;38.70;24.00;;;;;;;3.58;47.13;100215.12;104805;1254;61842;-61
2024/03/08 02:37:29;;;;;;;33.80;22.80;;;;;;;3.50;47.19;100213.77;104766;1255;72857;-64
2024/03/08 02:40:41;;;;;;;31.20;22.30;;;;;;;3.53;46.89;100215.48;105573;1254;69139;-61
2024/03/08 02:43:55;;;;;;;34.30;23.20;;;;;;;3.36;47.58;100213.49;104194;1256;72476;-61
2024/03/08 02:47:06;;;;;;;33.60;22.70;;;;;;;3.34;47.62;100210.38;104717;1258;61578;-61
2024/03/08 02:50:18;;;;;;;32.90;22.30;;;;;;;3.43;47.43;100204.61;104581;1258;59786;-60
2024/03/08 02:53:30;;;;;;;34.90;22.50;;;;;;;3.40;47.32;100202.55;104245;1269;72812;-61
2024/03/08 02:56:41;;;;;;;32.20;21.50;;;;;;;3.49;47.27;100201.46;104542;1254;69057;-61
2024/03/08 02:59:53;;;;;;;30.40;22.20;;;;;;;3.23;47.75;100200.54;104456;1261;72512;-62
2024/03/08 03:03:06;;;;;;;34.30;21.90;;;;;;;3.33;47.51;100196.17;104219;1260;61600;-60
2024/03/08 03:06:20;;;;;;;31.00;21.20;;;;;;;3.34;47.71;100193.23;104688;1257;59781;-60
2024/03/08 03:08:48;;;;;;;33.50;22.50;;;;;;;3.31;47.45;100193.92;104434;1253;73322;-61
2024/03/08 03:15:30;;;;;;;33.90;22.00;;;;;;;3.24;47.08;100186.33;105238;1257;72407;-61
2024/03/08 03:29:20;;;;;;;33.50;21.80;;;;;;;3.02;47.31;100182.26;105586;1255;69260;-61
2024/03/08 03:32:46;;;;;;;32.50;21.40;;;;;;;2.96;47.76;100181.05;105554;1254;71158;-61
2024/03/08 03:35:59;;;;;;;32.10;21.40;;;;;;;3.05;47.44;100181.21;104528;1255;61437;-60
2024/03/08 03:39:12;;;;;;;35.30;22.10;;;;;;;3.33;46.99;100182.13;105133;1257;59891;-60
2024/03/08 03:42:26;;;;;;;37.50;21.90;;;;;;;3.01;48.23;100181.05;104922;1253;72837;-60
2024/03/08 03:45:39;;;;;;;30.00;20.40;;;;;;;3.02;47.77;100182.95;104553;1253;69072;-60
2024/03/08 03:48:50;;;;;;;32.60;21.20;;;;;;;2.97;48.36;100175.69;104694;1258;72393;-61
2024/03/08 03:52:04;;;;;;;32.90;21.00;;;;;;;2.99;48.08;100176.90;104891;1256;61984;-61
2024/03/08 03:55:16;;;;;;;31.90;20.80;;;;;;;3.04;48.51;100176.19;104332;1258;59720;-60
2024/03/08 03:58:28;;;;;;;32.60;21.60;;;;;;;3.06;48.53;100175.66;104374;1259;72959;-63
2024/03/08 04:01:40;;;;;;;31.40;20.90;;;;;;;3.66;47.34;100169.30;104993;1259;69161;-63
2024/03/08 04:04:54;;;;;;;32.90;21.40;;;;;;;3.80;46.89;100171.10;105083;1253;73154;-60
2024/03/08 04:07:37;;;;;;;36.20;21.60;;;;;;;3.73;46.79;100174.29;104824;1253;62369;-61
2024/03/08 04:10:49;;;;;;;30.90;21.90;;;;;;;3.63;46.87;100175.20;104727;1253;59625;-63
2024/03/08 04:14:01;;;;;;;35.10;22.70;;;;;;;3.71;47.14;100177.23;106076;1253;72914;-63
2024/03/08 04:17:14;;;;;;;31.00;21.20;;;;;;;3.46;47.66;100174.79;105456;1258;69467;-62
2024/03/08 04:26:53;;;;;;;28.70;21.20;;;;;;;3.57;47.13;100165.89;104445;1258;60172;-61
2024/03/08 04:37:06;;;;;;;34.30;21.70;;;;;;;3.73;47.46;100164.57;104399;1268;73346;-62
2024/03/08 04:40:18;;;;;;;31.60;21.10;;;;;;;3.45;47.72;100164.58;108038;1253;64157;-60
2024/03/08 04:43:30;;;;;;;32.30;22.10;;;;;;;2.93;49.04;100163.92;105801;1257;59621;-60
2024/03/08 04:50:12;;;;;;;31.40;20.60;;;;;;;3.02;49.56;100159.73;104717;1260;71939;-62
2024/03/08 04:53:24;;;;;;;33.50;23.60;;;;;;;3.19;49.28;100153.27;105666;1258;71888;-61
2024/03/08 04:56:36;;;;;;;48.30;34.70;;;;;;;3.48;48.87;100152.23;106076;1255;61935;-61
2024/03/08 04:59:23;;;;;;;40.40;29.40;;;;;;;3.41;48.54;100156.97;104974;1256;59857;-62
2024/03/08 05:12:30;;;;;;;33.00;23.60;;;;;;;4.27;47.40;100158.27;108296;1252;61950;-64
2024/03/08 05:15:41;;;;;;;29.10;18.80;;;;;;;4.28;47.50;100159.81;108187;1253;59682;-61
2024/03/08 05:25:09;;;;;;;29.00;20.30;;;;;;;4.81;46.85;100162.94;108162;1256;72869;-64
2024/03/08 05:28:20;;;;;;;31.50;19.90;;;;;;;4.76;47.05;100163.52;107999;1253;61833;-63
2024/03/08 05:31:31;;;;;;;25.80;18.60;;;;;;;4.79;47.17;100163.66;108341;1253;60346;-65
2024/03/08 05:34:36;;;;;;;31.30;21.10;;;;;;;5.12;46.89;100161.05;107868;1252;74141;-65
2024/03/08 05:37:31;;;;;;;31.20;19.60;;;;;;;5.34;46.48;100162.30;108274;1253;69661;-64
2024/03/08 05:40:43;;;;;;;27.90;19.30;;;;;;;5.20;46.44;100157.96;107910;1255;72451;-64
2024/03/08 05:47:27;;;;;;;25.50;19.30;;;;;;;5.00;47.13;100161.69;108238;1253;59788;-64
2024/03/08 05:50:43;;;;;;;28.40;19.40;;;;;;;5.02;47.30;100157.14;108336;1253;75739;-64
2024/03/08 06:00:36;;;;;;;29.50;20.60;;;;;;;5.51;46.95;100150.60;100958;1291;607314;-62
2024/03/08 06:10:52;;;;;;;29.30;20.30;;;;;;;5.73;46.65;100148.54;103322;1269;72046;-65
2024/03/08 06:14:06;;;;;;;31.70;22.20;;;;;;;5.81;46.44;100150.52;103436;1275;226549;-64
2024/03/08 12:25:49;;;;;;;6.50;5.90;;;;;;;15.51;26.29;99850.38;103971;1267;59363;-64
2024/03/08 12:29:01;;;;;;;6.40;5.40;;;;;;;15.28;26.40;99849.27;104319;1269;60258;-63
2024/03/08 12:35:10;;;;;;;9.00;6.20;;;;;;;14.88;26.45;99843.98;100696;1265;5511509;-64
2024/03/08 12:38:25;;;;;;;7.10;5.60;;;;;;;14.91;26.24;99842.94;104826;1259;72668;-63
2024/03/08 12:49:17;;;;;;;6.60;5.90;;;;;;;15.22;25.59;99833.73;103970;1262;73353;-64
2024/03/08 12:52:30;;;;;;;5.70;5.20;;;;;;;15.00;25.64;99834.63;105259;1263;68802;-64
2024/03/08 12:55:42;;;;;;;5.30;4.70;;;;;;;14.93;25.52;99826.39;104278;1265;73208;-64
2024/03/08 12:58:47;;;;;;;5.20;4.60;;;;;;;14.94;25.77;99820.34;104301;1259;59770;-63
2024/03/08 13:05:05;;;;;;;7.30;4.30;;;;;;;14.98;25.58;99816.41;104266;1259;73198;-63
2024/03/08 13:15:08;;;;;;;5.90;4.80;;;;;;;15.23;25.41;99803.81;105585;1257;59698;-63
2024/03/08 13:28:56;;;;;;;10.90;4.90;;;;;;;16.04;24.41;99785.11;104336;1259;73151;-63
2024/03/08 13:32:11;;;;;;;6.60;5.20;;;;;;;16.06;24.30;99782.15;104446;1264;60075;-65
2024/03/08 13:35:27;;;;;;;6.60;5.30;;;;;;;16.26;24.29;99777.36;106198;1257;59763;-65
2024/03/08 13:38:39;;;;;;;6.60;5.30;;;;;;;16.53;24.02;99771.91;105648;1259;73583;-64
2024/03/08 13:41:50;;;;;;;5.70;4.50;;;;;;;16.66;24.02;99771.38;104695;1263;69471;-63
2024/03/08 13:45:10;;;;;;;4.80;4.30;;;;;;;16.82;23.89;99771.28;104535;1263;72513;-62
2024/03/08 13:47:46;;;;;;;6.80;4.80;;;;;;;16.95;23.69;99766.46;103925;1281;60467;-62
2024/03/08 13:50:58;;;;;;;5.70;4.90;;;;;;;17.12;23.37;99764.13;105137;1258;59867;-63
2024/03/08 13:54:10;;;;;;;6.00;5.10;;;;;;;17.24;23.09;99767.54;104412;1264;71830;-62
2024/03/08 13:57:22;;;;;;;5.80;4.60;;;;;;;17.41;23.06;99765.69;104040;1264;70989;-61
2024/03/08 14:00:34;;;;;;;8.50;5.30;;;;;;;17.44;23.27;99754.66;103943;1276;72327;-62
2024/03/08 14:03:48;;;;;;;8.30;5.30;;;;;;;17.43;22.95;99762.17;104383;1264;60465;-63
2024/03/08 14:06:25;;;;;;;7.50;5.10;;;;;;;17.34;23.10;99757.27;104664;1258;59785;-62
2024/03/08 14:16:52;;;;;;;5.80;5.30;;;;;;;16.92;23.95;99753.23;104528;1259;72530;-64
2024/03/08 14:20:09;;;;;;;6.10;4.70;;;;;;;17.31;23.64;99749.86;104017;1258;59800;-65
2024/03/08 14:23:22;;;;;;;9.80;5.30;;;;;;;17.35;23.41;99749.42;104268;1262;59693;-62
2024/03/08 14:25:51;;;;;;;8.40;5.80;;;;;;;17.28;23.59;99744.59;104425;1262;73724;-62
2024/03/08 14:28:51;;;;;;;6.80;5.80;;;;;;;17.12;23.71;99745.02;104343;1262;70603;-62
2024/03/08 14:32:06;;;;;;;7.80;6.20;;;;;;;16.88;23.52;99743.77;104120;1263;72509;-63
2024/03/08 14:35:20;;;;;;;6.10;5.50;;;;;;;16.88;23.89;99738.98;104240;1258;60438;-62
2024/03/08 14:38:32;;;;;;;6.80;5.90;;;;;;;16.83;23.81;99738.42;104347;1258;59827;-61
2024/03/08 14:45:07;;;;;;;9.80;7.50;;;;;;;16.63;23.81;99738.15;104271;1263;70017;-63
2024/03/08 14:48:21;;;;;;;9.60;6.60;;;;;;;16.77;23.64;99736.52;104574;1258;72536;-62
2024/03/08 14:51:39;;;;;;;8.70;6.70;;;;;;;16.80;23.66;99731.02;104336;1261;60360;-61
2024/03/08 15:01:49;;;;;;;5.90;4.60;;;;;;;15.70;24.59;99735.06;104931;1258;69175;-63
2024/03/08 15:05:01;;;;;;;7.70;6.10;;;;;;;15.53;24.64;99731.71;105072;1258;73527;-64
2024/03/08 15:08:19;;;;;;;8.00;6.00;;;;;;;15.15;24.26;99735.41;104984;1258;60069;-63
2024/03/08 15:15:07;;;;;;;13.50;8.10;;;;;;;14.80;24.78;99730.13;104611;1254;72100;-64
2024/03/08 15:18:19;;;;;;;8.60;6.70;;;;;;;14.62;24.89;99722.67;104996;1253;69697;-65
2024/03/08 15:25:01;;;;;;;13.40;8.90;;;;;;;14.21;25.31;99723.39;104259;1258;59984;-65
2024/03/08 15:28:15;;;;;;;15.70;11.50;;;;;;;14.11;25.58;99723.81;104601;1259;60041;-64
2024/03/08 15:31:14;;;;;;;16.70;11.10;;;;;;;14.07;25.53;99718.22;104627;1258;71811;-64
2024/03/08 15:34:26;;;;;;;15.70;10.70;;;;;;;13.94;25.81;99718.61;104543;1259;69472;-64
2024/03/08 15:37:42;;;;;;;18.00;11.00;;;;;;;13.80;25.73;99721.84;104309;1258;74751;-64
2024/03/08 15:40:54;;;;;;;18.00;11.40;;;;;;;13.65;25.81;99716.47;105109;1257;61846;-65
2024/03/08 15:44:06;;;;;;;18.10;10.70;;;;;;;13.50;25.92;99717.95;105117;1253;60688;-66
2024/03/08 15:47:18;;;;;;;15.50;9.80;;;;;;;13.37;26.07;99718.13;104468;1258;73190;-64
2024/03/08 15:50:31;;;;;;;15.30;9.80;;;;;;;13.24;26.26;99718.40;105261;1258;68488;-64
2024/03/08 15:53:44;;;;;;;15.20;9.20;;;;;;;13.16;26.27;99718.33;105651;1257;72491;-64
2024/03/08 15:56:57;;;;;;;14.30;10.10;;;;;;;12.98;26.32;99717.52;104393;1259;59776;-65
2024/03/08 16:00:12;;;;;;;14.80;8.50;;;;;;;12.94;26.41;99721.42;104827;1263;60081;-64
2024/03/08 16:03:24;;;;;;;18.40;8.60;;;;;;;12.87;26.49;99719.83;104436;1258;73256;-64
2024/03/08 16:06:39;;;;;;;14.30;8.10;;;;;;;12.84;26.93;99720.65;105433;1258;70751;-62
2024/03/08 16:13:17;;;;;;;10.70;7.60;;;;;;;12.71;27.03;99722.55;105088;1258;59857;-63
2024/03/08 16:16:35;;;;;;;16.80;9.90;;;;;;;12.60;27.10;99721.52;104775;1253;59856;-64
2024/03/08 16:22:43;;;;;;;15.40;10.50;;;;;;;12.25;27.75;99726.92;105473;1258;68757;-63
2024/03/08 16:25:55;;;;;;;15.30;10.60;;;;;;;12.00;28.14;99727.20;104771;1257;72629;-63
2024/03/08 16:46:41;;;;;;;12.00;8.90;;;;;;;11.34;29.43;99732.33;104317;1266;59765;-63
2024/03/08 16:49:53;;;;;;;12.40;8.40;;;;;;;11.24;29.46;99732.45;104343;1256;61463;-63
2024/03/08 16:56:38;;;;;;;10.90;8.00;;;;;;;11.12;29.88;99735.40;105169;1258;69262;-64
2024/03/08 16:59:50;;;;;;;18.30;10.30;;;;;;;10.99;30.10;99737.71;104757;1255;73449;-63
2024/03/08 17:03:06;;;;;;;14.60;9.80;;;;;;;10.98;30.48;99737.58;105664;1253;59727;-64
2024/03/08 17:06:20;;;;;;;19.60;10.30;;;;;;;11.00;30.54;99738.20;105963;1258;59820;-64
2024/03/08 17:09:33;;;;;;;17.90;11.50;;;;;;;10.82;30.98;99739.32;104478;1258;71992;-64
2024/03/08 17:12:47;;;;;;;22.60;10.80;;;;;;;10.68;31.13;99732.17;104774;1259;69518;-63
2024/03/08 17:16:00;;;;;;;18.90;10.80;;;;;;;10.59;31.25;99734.66;104567;1257;71434;-64
2024/03/08 17:19:12;;;;;;;15.40;11.80;;;;;;;10.47;31.42;99738.46;105250;1258;59798;-64
2024/03/08 17:22:24;;;;;;;14.70;12.70;;;;;;;10.37;31.62;99732.40;104566;1253;60166;-62
2024/03/08 17:25:37;;;;;;;16.70;12.40;;;;;;;10.34;32.00;99734.45;105232;1256;72272;-63
2024/03/08 17:28:49;;;;;;;18.40;12.10;;;;;;;10.28;31.88;99733.80;104635;1258;68078;-64
2024/03/08 17:32:04;;;;;;;18.80;13.00;;;;;;;10.18;32.36;99736.11;104798;1258;71979;-63
2024/03/08 17:35:11;;;;;;;23.10;13.20;;;;;;;10.20;32.58;99733.57;104888;1253;59762;-63
2024/03/08 17:41:54;;;;;;;23.40;13.80;;;;;;;10.16;32.76;99733.75;104975;1258;72138;-63
2024/03/08 17:45:07;;;;;;;19.60;12.90;;;;;;;10.07;33.04;99736.38;104706;1257;68586;-60
2024/03/08 17:48:19;;;;;;;25.20;14.30;;;;;;;9.99;33.33;99737.20;104425;1262;72512;-61
2024/03/08 17:51:36;;;;;;;25.20;16.00;;;;;;;9.91;33.29;99740.29;104351;1275;61103;-61
2024/03/08 17:54:54;;;;;;;23.60;15.20;;;;;;;9.93;33.26;99737.58;105298;1252;60714;-61
2024/03/08 17:58:06;;;;;;;23.80;14.30;;;;;;;9.88;33.29;99738.16;105455;1256;73683;-60
2024/03/08 18:29:22;;;;;;;22.50;14.50;;;;;;;9.46;34.29;99726.94;104790;1263;60442;-65
2024/03/08 18:32:35;;;;;;;26.20;16.90;;;;;;;9.38;34.25;99730.04;105274;1258;72832;-65
2024/03/08 18:39:26;;;;;;;25.70;14.90;;;;;;;9.27;34.49;99723.23;104990;1257;71585;-63
2024/03/08 18:42:41;;;;;;;23.50;14.20;;;;;;;9.30;34.65;99722.45;104511;1258;60565;-63
2024/03/08 18:45:54;;;;;;;31.50;18.70;;;;;;;9.04;35.30;99722.15;104752;1263;60487;-64
2024/03/08 18:59:43;;;;;;;19.20;13.70;;;;;;;9.05;35.10;99722.30;104358;1258;60610;-64
2024/03/08 19:02:57;;;;;;;28.10;18.70;;;;;;;8.96;35.51;99725.91;104581;1259;60634;-64
2024/03/08 19:06:10;;;;;;;29.60;18.10;;;;;;;8.79;35.76;99728.77;104350;1276;74436;-64
2024/03/08 19:09:22;;;;;;;27.80;18.50;;;;;;;8.69;35.90;99725.95;104369;1271;69354;-63
2024/03/08 19:12:34;;;;;;;31.20;18.60;;;;;;;8.63;36.02;99729.86;105020;1258;73115;-64
2024/03/08 19:15:50;;;;;;;26.20;15.50;;;;;;;8.54;36.39;99732.77;104399;1261;60495;-64
2024/03/08 19:19:03;;;;;;;31.70;14.70;;;;;;;8.49;36.34;99732.76;105345;1257;60568;-63
2024/03/08 19:22:16;;;;;;;32.40;16.20;;;;;;;8.45;36.62;99727.48;104678;1254;72535;-64
2024/03/08 19:25:28;;;;;;;25.10;14.60;;;;;;;8.38;36.79;99732.91;104400;1260;69491;-64
2024/03/08 19:28:41;;;;;;;24.20;13.80;;;;;;;8.29;36.94;99728.48;104707;1254;73006;-64
2024/03/08 19:31:56;;;;;;;26.00;14.00;;;;;;;8.27;37.20;99726.44;104828;1259;60541;-64
2024/03/08 19:35:11;;;;;;;23.30;14.60;;;;;;;8.30;37.24;99729.33;104969;1257;61079;-62
2024/03/08 19:38:23;;;;;;;21.90;14.10;;;;;;;8.24;37.60;99725.49;104918;1256;72926;-64
2024/03/08 19:41:37;;;;;;;22.20;12.20;;;;;;;8.23;37.40;99722.73;104809;1256;71255;-62
2024/03/08 19:44:49;;;;;;;23.20;15.00;;;;;;;8.19;37.82;99723.71;104485;1255;72546;-62
2024/03/08 19:55:10;;;;;;;31.00;20.50;;;;;;;8.05;38.51;99710.91;106036;1257;72562;-63
2024/03/08 19:58:26;;;;;;;32.40;21.20;;;;;;;8.01;38.66;99711.19;104457;1260;69415;-62
2024/03/08 20:01:41;;;;;;;30.90;18.90;;;;;;;7.93;39.02;99707.80;104766;1267;74764;-63
2024/03/08 20:04:56;;;;;;;27.40;18.20;;;;;;;7.90;38.88;99706.29;104853;1254;60586;-63
2024/03/08 20:08:13;;;;;;;29.00;17.20;;;;;;;7.92;38.86;99704.84;104390;1268;60540;-62
2024/03/08 20:18:27;;;;;;;25.00;13.40;;;;;;;8.16;38.52;99700.77;104354;1255;72922;-62
2024/03/08 20:21:39;;;;;;;21.20;12.40;;;;;;;8.17;38.35;99701.80;104298;1274;61365;-62
2024/03/08 20:24:13;;;;;;;20.00;13.30;;;;;;;8.12;38.53;99704.55;106885;1258;60003;-62
2024/03/08 20:27:26;;;;;;;22.10;13.60;;;;;;;8.10;38.79;99703.58;104544;1258;73648;-62
2024/03/08 20:55:08;;;;;;;21.20;14.00;;;;;;;7.55;40.18;99700.02;104779;1261;60452;-61
2024/03/08 20:58:23;;;;;;;21.70;13.80;;;;;;;7.28;40.49;99697.98;104607;1259;60527;-61
2024/03/08 21:15:44;;;;;;;20.30;14.90;;;;;;;8.01;39.38;99686.58;105309;1259;60519;-64
2024/03/08 21:19:00;;;;;;;19.60;14.40;;;;;;;8.01;39.40;99686.42;106174;1253;73689;-64
2024/03/08 21:22:18;;;;;;;20.90;14.00;;;;;;;8.07;39.40;99685.88;104787;1260;69270;-64
2024/03/08 21:25:15;;;;;;;23.30;14.80;;;;;;;7.94;39.53;99684.38;104330;1265;71560;-64
2024/03/08 21:35:34;;;;;;;23.00;14.20;;;;;;;8.19;38.92;99682.51;105086;1252;73737;-63
2024/03/08 21:38:46;;;;;;;24.30;13.90;;;;;;;8.24;38.69;99683.40;104922;1254;69570;-64
2024/03/08 21:41:16;;;;;;;22.10;13.10;;;;;;;8.23;38.60;99682.23;104710;1256;73158;-61
2024/03/08 21:43:49;;;;;;;22.40;13.60;;;;;;;8.20;38.54;99676.73;104762;1254;60535;-63
2024/03/08 21:46:20;;;;;;;24.10;14.00;;;;;;;8.22;38.58;99675.43;104934;1271;60034;-64
2024/03/08 21:48:51;;;;;;;22.40;14.40;;;;;;;8.19;38.63;99676.41;105014;1254;73741;-64
2024/03/08 21:52:03;;;;;;;23.70;15.00;;;;;;;8.18;38.62;99675.06;104412;1255;69554;-63
2024/03/08 22:05:47;;;;;;;22.80;13.70;;;;;;;7.98;39.13;99672.89;104825;1254;73649;-63
2024/03/08 22:08:59;;;;;;;20.60;13.60;;;;;;;7.97;38.93;99672.23;105246;1253;70098;-64
2024/03/08 22:19:12;;;;;;;19.50;12.80;;;;;;;7.83;39.28;99665.50;104488;1257;60544;-63
2024/03/08 22:22:24;;;;;;;17.70;11.70;;;;;;;7.78;39.23;99662.35;104484;1260;73704;-63
2024/03/08 22:25:07;;;;;;;23.50;12.90;;;;;;;7.75;39.26;99663.83;105065;1257;69726;-64
2024/03/08 22:28:25;;;;;;;20.90;12.70;;;;;;;7.70;39.37;99668.69;104447;1273;72580;-63
2024/03/08 22:31:39;;;;;;;16.20;12.20;;;;;;;7.73;39.32;99666.00;104642;1254;60562;-64
2024/03/08 22:38:26;;;;;;;24.20;11.50;;;;;;;7.76;39.26;99669.72;104580;1257;73822;-63
2024/03/08 22:45:10;;;;;;;16.10;11.10;;;;;;;7.72;39.13;99671.95;104329;1267;72372;-62
2024/03/08 22:55:23;;;;;;;13.60;9.80;;;;;;;7.62;39.16;99668.77;104988;1257;73598;-62
2024/03/08 22:58:36;;;;;;;15.80;10.80;;;;;;;7.60;39.19;99671.09;108199;1254;70188;-62
2024/03/08 23:01:52;;;;;;;16.20;10.30;;;;;;;7.62;39.38;99669.80;108163;1253;73424;-62
2024/03/08 23:05:09;;;;;;;15.10;10.30;;;;;;;7.65;39.45;99669.55;108194;1254;59310;-61
2024/03/08 23:11:49;;;;;;;16.50;10.10;;;;;;;7.68;39.58;99671.38;108196;1253;73547;-62
2024/03/08 23:15:00;;;;;;;10.80;8.70;;;;;;;7.66;39.56;99670.40;108162;1252;69140;-60
2024/03/08 23:18:11;;;;;;;15.10;9.50;;;;;;;7.65;39.61;99668.31;108236;1253;72509;-60
2024/03/08 23:21:07;;;;;;;14.00;9.40;;;;;;;7.68;39.64;99671.36;108212;1253;59293;-61
2024/03/08 23:24:00;;;;;;;14.50;9.20;;;;;;;7.72;39.31;99673.51;108239;1254;59119;-61
2024/03/08 23:26:33;;;;;;;13.50;10.00;;;;;;;7.73;39.24;99671.24;108239;1253;74060;-61
2024/03/08 23:36:41;;;;;;;12.80;9.50;;;;;;;7.58;39.54;99667.67;108242;1253;59262;-61
2024/03/08 23:39:52;;;;;;;14.70;9.40;;;;;;;7.69;39.13;99664.73;108298;1252;60100;-61
2024/03/08 23:43:07;;;;;;;14.00;8.90;;;;;;;7.62;39.18;99663.17;108174;1252;73678;-61
2024/03/08 23:46:21;;;;;;;13.00;9.10;;;;;;;7.58;39.34;99661.73;108296;1253;69230;-61
2024/03/08 23:49:17;;;;;;;15.50;9.00;;;;;;;7.60;39.34;99661.84;108130;1253;72349;-62
2024/03/08 23:52:10;;;;;;;13.90;9.40;;;;;;;7.56;39.44;99662.83;108178;1254;58999;-62
2024/03/08 23:55:09;;;;;;;16.40;9.30;;;;;;;7.72;39.17;99659.91;108231;1253;59082;-61
